• Join FlightAware (Why Join?)
  • Login
  • US Flag 
10:31PM EDT


 

Airport Tracker/Info


-or-


 

Live Flight TrackerFlight Track Log ✈ TAM3020 ✈ 11-Sep-2013 ✈ SBCT / CWB - SBSP / CGH

Flight Track Log - Related Links

Times and Time Zones

All times are in EDT time to prevent confusion due to time zone crossing. See the TAM3020 flight status page for this flight to view local times or setup timezone preferences in your user account.

Time Position Orientation Groundspeed Altitude Reporting Facility
EDT Latitude Longitude Course Direction KTS MPH feet Rate Location/Type
07:29PM -25.5870 -49.1060 124° Southeast 241 277 5,200  Level FlightAware
07:30PM -25.5910 -49.0960 114° Southeast 244 281 5,600 660 Climbing FlightAware
07:30PM -25.5960 -49.0700 102° East 244 281 5,600 2,580 Level FlightAware
07:32PM -25.5740 -48.9300 80° East 302 348 10,900 3,000 Climbing FlightAware
07:32PM -25.5730 -48.9140 86° East 312 359 11,000 780 Climbing FlightAware
07:32PM -25.5720 -48.9050 83° East 325 374 11,100 1,080 Climbing FlightAware
07:32PM -25.5700 -48.8900 82° East 330 380 11,300 1,200 Climbing FlightAware
07:32PM -25.5690 -48.8790 84° East 341 392 11,400 1,200 Climbing FlightAware
07:32PM -25.5680 -48.8690 84° East 349 402 11,500 1,560 Climbing FlightAware
07:32PM -25.5660 -48.8510 83° East 357 411 11,800 1,980 Climbing FlightAware
07:32PM -25.5650 -48.8420 83° East 358 412 12,000 2,160 Climbing FlightAware
07:33PM -25.5650 -48.8330 90° East 358 412 12,200 2,760 Climbing FlightAware
07:33PM -25.5630 -48.8150 83° East 356 410 12,700 2,760 Climbing FlightAware
07:33PM -25.5620 -48.8060 83° East 356 410 12,900 2,400 Climbing FlightAware
07:33PM -25.5600 -48.7870 83° East 362 417 13,300 1,560 Climbing FlightAware
07:33PM -25.5590 -48.7790 82° East 362 417 13,300  Level FlightAware
07:33PM -25.5550 -48.7400 84° East 362 417 13,300  Level FlightAware
07:34PM -25.5530 -48.7200 84° East 362 417 13,300 5,700 Level FlightAware
07:34PM -25.5490 -48.6840 83° East 366 421 15,600 9,000 Climbing FlightAware
07:34PM -25.5490 -48.6760 90° East 367 422 15,700 1,500 Climbing FlightAware
07:34PM -25.5470 -48.6560 84° East 371 427 16,000 1,860 Climbing FlightAware
07:34PM -25.5450 -48.6460 78° East 373 429 16,200 1,980 Climbing FlightAware
07:34PM -25.5450 -48.6380 90° East 374 430 16,300 1,680 Climbing FlightAware
07:34PM -25.5430 -48.6190 83° East 376 433 16,600 1,860 Climbing FlightAware
07:35PM -25.5420 -48.6080 84° East 378 435 16,800 2,160 Climbing FlightAware
07:35PM -25.5410 -48.5990 83° East 378 435 17,000 2,100 Climbing FlightAware
07:35PM -25.5390 -48.5800 83° East 380 437 17,300 1,980 Climbing FlightAware
07:35PM -25.5380 -48.5690 84° East 380 437 17,500 2,220 Climbing FlightAware
07:35PM -25.5350 -48.5510 80° East 381 438 17,900 2,160 Climbing FlightAware
07:35PM -25.5320 -48.5340 79° East 384 442 18,200 1,800 Climbing FlightAware
07:35PM -25.5230 -48.5140 63° Northeast 388 447 18,500 1,860 Climbing FlightAware
07:35PM -25.5180 -48.5060 55° Northeast 390 449 18,700 1,980 Climbing FlightAware
07:36PM -25.5080 -48.4900 55° Northeast 392 451 19,000 2,100 Climbing FlightAware
07:36PM -25.5020 -48.4810 54° Northeast 393 452 19,200 1,680 Climbing FlightAware
07:36PM -25.4920 -48.4660 54° Northeast 395 455 19,400 1,500 Climbing FlightAware
07:36PM -25.4860 -48.4570 54° Northeast 397 457 19,600 1,560 Climbing FlightAware
07:36PM -25.4760 -48.4430 52° Northeast 399 459 19,800 1,680 Climbing FlightAware
07:36PM -25.4700 -48.4330 56° Northeast 400 460 20,000 2,400 Climbing FlightAware
07:36PM -25.4650 -48.4250 55° Northeast 400 460 20,200 1,980 Climbing FlightAware
07:36PM -25.4540 -48.4080 54° Northeast 403 464 20,500 1,500 Climbing FlightAware
07:37PM -25.4470 -48.3980 52° Northeast 404 465 20,600 1,200 Climbing FlightAware
07:37PM -25.4420 -48.3910 52° Northeast 406 467 20,700 1,680 Climbing FlightAware
07:37PM -25.4320 -48.3750 55° Northeast 407 468 21,000 1,500 Climbing FlightAware
07:37PM -25.4270 -48.3670 55° Northeast 409 471 21,100 1,860 Climbing FlightAware
07:37PM -25.4150 -48.3480 55° Northeast 408 470 21,500 2,100 Climbing FlightAware
07:37PM -25.4130 -48.3450 54° Northeast 408 470 21,600 2,640 Climbing FlightAware
07:37PM -25.4050 -48.3330 54° Northeast 407 468 21,900 2,220 Climbing FlightAware
07:37PM -25.3940 -48.3160 54° Northeast 407 468 22,200 1,860 Climbing FlightAware
07:37PM -25.3880 -48.3070 54° Northeast 406 467 22,400 1,800 Climbing FlightAware
07:38PM -25.3840 -48.3000 58° Northeast 407 468 22,500 1,200 Climbing FlightAware
07:38PM -25.3710 -48.2800 54° Northeast 413 475 22,700 780 Climbing FlightAware
07:38PM -25.3660 -48.2730 52° Northeast 417 480 22,700  Level FlightAware
07:38PM -25.3600 -48.2630 56° Northeast 421 484 22,700 780 Level FlightAware
07:38PM -25.3480 -48.2450 54° Northeast 426 490 22,900 1,200 Climbing FlightAware
07:38PM -25.3430 -48.2370 55° Northeast 427 491 23,000 1,980 Climbing FlightAware
07:38PM -25.3310 -48.2190 54° Northeast 423 487 23,400 1,980 Climbing FlightAware
07:39PM -25.2910 -48.1580 54° Northeast 425 489 24,500 1,260 Climbing FlightAware
07:39PM -25.2500 -48.0950 54° Northeast 437 503 24,900 360 Climbing FlightAware
07:40PM -25.1970 -48.0130 54° Northeast 467 537 25,000 60 Climbing FlightAware
07:41PM -25.1510 -47.9440 54° Northeast 478 550 25,000  Level FlightAware
07:41PM -25.1110 -47.8840 54° Northeast 479 551 25,000  Level FlightAware
07:42PM -25.0610 -47.8080 54° Northeast 471 542 25,000  Level FlightAware
07:42PM -25.0210 -47.7460 55° Northeast 461 531 25,000  Level FlightAware
07:43PM -24.9710 -47.6700 54° Northeast 452 520 25,000  Level FlightAware
07:44PM -24.9260 -47.6030 53° Northeast 453 521 25,000  Level FlightAware
07:44PM -24.8840 -47.5390 54° Northeast 454 522 25,000  Level FlightAware
07:45PM -24.8460 -47.4820 54° Northeast 455 524 25,000  Level FlightAware
07:45PM -24.8040 -47.4180 54° Northeast 461 531 25,000  Level FlightAware
07:46PM -24.7570 -47.3480 54° Northeast 460 529 25,000  Level FlightAware
07:47PM -24.7080 -47.2740 54° Northeast 452 520 25,000  Level FlightAware
07:47PM -24.6700 -47.2160 54° Northeast 452 520 25,000 -960 Level FlightAware
07:48PM -24.6210 -47.1420 54° Northeast 455 524 23,900 -2,160 Descending FlightAware
07:48PM -24.5770 -47.0760 54° Northeast 441 507 22,400 -2,340 Descending FlightAware
07:49PM -24.5430 -47.0260 53° Northeast 422 486 21,400 -2,340 Descending FlightAware
07:49PM -24.4980 -46.9650 51° Northeast 419 482 19,900 -1,860 Descending FlightAware
07:50PM -24.4390 -46.9220 34° Northeast 426 490 19,200 -1,320 Descending FlightAware
07:51PM -24.3800 -46.8800 33° Northeast 423 487 18,400 -1,200 Descending FlightAware
07:51PM -24.3260 -46.8410 33° Northeast 387 445 17,800 -900 Descending FlightAware
07:52PM -24.2660 -46.7990 33° Northeast 348 400 17,300 -660 Descending FlightAware
07:52PM -24.2340 -46.7740 35° Northeast 326 375 17,100 -600 Descending FlightAware
07:53PM -24.2220 -46.7550 55° Northeast 313 360 16,900 -600 Descending FlightAware
07:53PM -24.2030 -46.7060 67° East 284 327 16,600 -600 Descending FlightAware
07:54PM -24.1860 -46.6610 68° East 266 306 16,200 -960 Descending FlightAware
07:54PM -24.1690 -46.6170 67° East 262 302 15,500 -1,140 Descending FlightAware
07:55PM -24.1530 -46.5750 67° East 256 295 14,900 -1,080 Descending FlightAware
07:55PM -24.1380 -46.5340 68° East 244 281 14,300 -1,140 Descending FlightAware
07:56PM -24.1250 -46.4980 68° East 245 282 13,700 -1,320 Descending FlightAware
07:57PM -24.1100 -46.4510 71° East 241 277 12,800 -1,260 Descending FlightAware
07:57PM -24.1020 -46.4350 61° Northeast 233 268 12,600 -960 Descending FlightAware
07:57PM -24.0930 -46.4280 35° Northeast 232 267 12,400 -1,440 Descending FlightAware
07:57PM -24.0830 -46.4240 20° North 235 270 12,100 -1,200 Descending FlightAware
07:58PM -24.0640 -46.4260 355° North 248 285 11,700 -1,260 Descending FlightAware
07:58PM -24.0280 -46.4470 332° Northwest 268 308 10,900 -900 Descending FlightAware
07:59PM -23.9840 -46.4740 331° Northwest 269 310 10,600 -480 Descending FlightAware
08:00PM -23.9390 -46.5000 332° Northwest 263 303 10,300 -480 Descending FlightAware
08:02PM -23.8121 -46.5632 335° Northwest  Level Estimated
08:03PM -23.7475 -46.5953 336° Northwest  Level Estimated
08:04PM -23.6830 -46.6274 336° Northwest  Level Estimated
08:05PM -23.6267 -46.6554 336° Northwest  Level Estimated
08:06PM -23.6267 -46.6554 114° Southeast  Level Estimated
08:07PM -23.6267 -46.6554 114° Southeast  Level Estimated
08:08PM -23.6267 -46.6554 114° Southeast  Level Estimated
08:09PM -23.6267 -46.6554 114° Southeast  Level Estimated
08:10PM -23.6267 -46.6554 114° Southeast  Level Estimated
08:11PM -23.6267 -46.6554 114° Southeast  Level Estimated
08:12PM -23.6267 -46.6554 114° Southeast  Level Estimated
08:13PM -23.6267 -46.6554 114° Southeast  Level Estimated
08:14PM -23.6267 -46.6554 114° Southeast  Level Estimated
08:15PM -23.6267 -46.6554 114° Southeast  Level Estimated
08:16PM -23.6267 -46.6554 114° Southeast  Level Estimated
08:17PM -23.6267 -46.6554 114° Southeast  Level Estimated
08:18PM -23.6267 -46.6554 114° Southeast  Level Estimated
08:19PM -23.6267 -46.6554 114° Southeast  Level Estimated
08:20PM -23.6267 -46.6554 114° Southeast  Level Estimated
08:21PM -23.6267 -46.6554 114° Southeast  Level Estimated
08:22PM -23.6267 -46.6554 114° Southeast  Level Estimated
08:23PM -23.6267 -46.6554 114° Southeast  Level Estimated
08:24PM -23.6267 -46.6554 114° Southeast  Level Estimated
08:25PM -23.6267 -46.6554 114° Southeast  Level Estimated
08:26PM -23.6267 -46.6554 114° Southeast  Level Estimated